Data Viewer
| City | State | Eastern Time | Source | Temp | DewPt | RH | BP | 5 Min Precip | Wind Speed | Wind Dir | 5 Min Wind Max | 5 Min Wind Max Dir |
|---|---|---|---|---|---|---|---|---|---|---|---|---|
| Bangor | ME | 2026-05-07 12:50 | ASOS | 59 | 37 | 44 | 29.63 | 3 | NNE | |||
| Bangor | ME | 2026-05-08 04:20 | ASOS | 39 | 28 | 65 | 29.70 | 3 | WSW | |||
| Bangor | ME | 2026-05-08 04:50 | ASOS | 37 | 28 | 70 | 29.70 | 5 | WSW | |||
| Bangor | ME | 2026-05-08 04:45 | ASOS | 37 | 28 | 70 | 29.70 | 5 | WSW | |||
| Bangor | ME | 2026-05-08 04:40 | ASOS | 37 | 28 | 70 | 29.69 | 3 | WSW | |||
| Bangor | ME | 2026-05-08 04:35 | ASOS | 37 | 28 | 70 | 29.69 | 3 | WSW | |||
| Bangor | ME | 2026-05-08 04:30 | ASOS | 39 | 28 | 65 | 29.70 | 0 | N | |||
| Bangor | ME | 2026-05-08 04:25 | ASOS | 39 | 28 | 65 | 29.70 | 3 | WSW | |||
| Bangor | ME | 2026-05-08 04:15 | ASOS | 39 | 28 | 65 | 29.70 | 3 | WSW | |||
| Bangor | ME | 2026-05-08 04:55 | ASOS | 37 | 28 | 70 | 29.70 | 3 | WSW | |||
| Bangor | ME | 2026-05-08 04:10 | ASOS | 39 | 28 | 65 | 29.69 | 3 | WSW | |||
| Bangor | ME | 2026-05-08 04:05 | ASOS | 39 | 28 | 65 | 29.69 | 3 | WSW | |||
| Bangor | ME | 2026-05-08 04:00 | ASOS | 39 | 28 | 65 | 29.69 | 3 | WSW | |||
| Bangor | ME | 2026-05-08 03:55 | ASOS | 39 | 28 | 65 | 29.69 | 3 | W | |||
| Bangor | ME | 2026-05-08 03:53 | ASOS | 40 | 28 | 62 | 29.69 | 3 | ||||
| Bangor | ME | 2026-05-08 03:50 | ASOS | 39 | 28 | 65 | 29.69 | 3 | W | |||
| Bangor | ME | 2026-05-08 04:53 | ASOS | 37 | 28 | 70 | 29.70 | 3 | WSW | |||
| Bangor | ME | 2026-05-08 05:05 | ASOS | 36 | 28 | 75 | 29.70 | 0 | N | |||
| Bangor | ME | 2026-05-08 03:40 | ASOS | 39 | 28 | 65 | 29.69 | 5 | W | |||
| Bangor | ME | 2026-05-08 05:50 | ASOS | 34 | 28 | 80 | 29.71 | 0 | N | |||
| Bangor | ME | 2026-05-08 06:20 | ASOS | 39 | 30 | 70 | 29.72 | 5 | W | |||
| Bangor | ME | 2026-05-08 06:10 | ASOS | 37 | 30 | 75 | 29.72 | 3 | W | |||
| Bangor | ME | 2026-05-08 06:05 | ASOS | 36 | 30 | 80 | 29.72 | 0 | N | |||
| Bangor | ME | 2026-05-08 06:00 | ASOS | 36 | 30 | 80 | 29.72 | 0 | N | |||
| Bangor | ME | 2026-05-08 05:55 | ASOS | 34 | 28 | 80 | 29.71 | 0 | N | |||
| Bangor | ME | 2026-05-08 05:53 | ASOS | 34 | 29 | 82 | 29.71 | 0 | N | |||
| Bangor | ME | 2026-05-08 05:45 | ASOS | 34 | 28 | 80 | 29.71 | 3 | ENE | |||
| Bangor | ME | 2026-05-08 05:10 | ASOS | 36 | 28 | 75 | 29.70 | 0 | N | |||
| Bangor | ME | 2026-05-08 05:40 | ASOS | 34 | 28 | 80 | 29.71 | 0 | N | |||
| Bangor | ME | 2026-05-08 05:35 | ASOS | 34 | 28 | 80 | 29.70 | 0 | N | |||
| Bangor | ME | 2026-05-08 05:30 | ASOS | 34 | 28 | 80 | 29.70 | 0 | N | |||
| Bangor | ME | 2026-05-08 05:25 | ASOS | 34 | 28 | 80 | 29.70 | 0 | N | |||
| Bangor | ME | 2026-05-08 05:20 | ASOS | 36 | 28 | 75 | 29.70 | 0 | N | |||
| Bangor | ME | 2026-05-08 05:15 | ASOS | 36 | 28 | 75 | 29.70 | 0 | N | |||
| Bangor | ME | 2026-05-08 03:45 | ASOS | 39 | 28 | 65 | 29.69 | 5 | W | |||
| Bangor | ME | 2026-05-08 03:35 | ASOS | 39 | 28 | 65 | 29.69 | 6 | W | |||
| Bangor | ME | 2026-05-08 06:30 | ASOS | 39 | 30 | 70 | 29.73 | 5 | W | |||
| Bangor | ME | 2026-05-08 01:35 | ASOS | 43 | 26 | 52 | 29.70 | 7 | W | |||
| Bangor | ME | 2026-05-08 02:00 | ASOS | 43 | 26 | 52 | 29.70 | 7 | W | |||
| Bangor | ME | 2026-05-08 01:55 | ASOS | 43 | 26 | 52 | 29.70 | 6 | W | |||
| Bangor | ME | 2026-05-08 01:53 | ASOS | 42 | 27 | 55 | 29.70 | 6 | W | |||
| Bangor | ME | 2026-05-08 01:50 | ASOS | 43 | 26 | 52 | 29.70 | 6 | W | |||
| Bangor | ME | 2026-05-08 01:45 | ASOS | 43 | 26 | 52 | 29.71 | 6 | W | |||
| Bangor | ME | 2026-05-08 01:40 | ASOS | 43 | 26 | 52 | 29.71 | 6 | W | |||
| Bangor | ME | 2026-05-08 01:30 | ASOS | 43 | 26 | 52 | 29.70 | 6 | W | |||
| Bangor | ME | 2026-05-08 02:10 | ASOS | 43 | 26 | 52 | 29.70 | 6 | W | |||
| Bangor | ME | 2026-05-08 01:25 | ASOS | 43 | 26 | 52 | 29.70 | 7 | W | |||
| Bangor | ME | 2026-05-08 01:20 | ASOS | 43 | 26 | 52 | 29.70 | 5 | WNW | |||
| Bangor | ME | 2026-05-08 01:15 | ASOS | 43 | 26 | 52 | 29.71 | 7 | W | |||
| Bangor | ME | 2026-05-08 01:10 | ASOS | 43 | 26 | 52 | 29.71 | 7 | WNW | |||
| Bangor | ME | 2026-05-08 01:05 | ASOS | 43 | 26 | 52 | 29.71 | 6 | WNW | |||
| Bangor | ME | 2026-05-08 00:55 | ASOS | 45 | 26 | 49 | 29.71 | 6 | W | |||
| Bangor | ME | 2026-05-08 02:05 | ASOS | 43 | 26 | 52 | 29.70 | 6 | W | |||
| Bangor | ME | 2026-05-08 02:15 | ASOS | 43 | 26 | 52 | 29.70 | 5 | W | |||
| Bangor | ME | 2026-05-08 03:30 | ASOS | 39 | 28 | 65 | 29.69 | 6 | W | |||
| Bangor | ME | 2026-05-08 02:55 | ASOS | 41 | 28 | 61 | 29.69 | 7 | W | |||
| Bangor | ME | 2026-05-08 03:25 | ASOS | 41 | 28 | 61 | 29.69 | 3 | WSW | |||
| Bangor | ME | 2026-05-08 03:20 | ASOS | 41 | 26 | 56 | 29.69 | 0 | N | |||
| Bangor | ME | 2026-05-08 03:15 | ASOS | 41 | 28 | 61 | 29.69 | 0 | N | |||
| Bangor | ME | 2026-05-08 03:10 | ASOS | 41 | 28 | 61 | 29.69 | 5 | W | |||
| Bangor | ME | 2026-05-08 03:05 | ASOS | 41 | 28 | 61 | 29.69 | 3 | W | |||
| Bangor | ME | 2026-05-08 03:00 | ASOS | 41 | 28 | 61 | 29.69 | 5 | W | |||
| Bangor | ME | 2026-05-08 02:53 | ASOS | 41 | 27 | 57 | 29.69 | 6 | W | |||
| Bangor | ME | 2026-05-08 02:20 | ASOS | 43 | 26 | 52 | 29.70 | 5 | W | |||
| Bangor | ME | 2026-05-08 02:50 | ASOS | 41 | 28 | 61 | 29.69 | 6 | W | |||
| Bangor | ME | 2026-05-08 02:45 | ASOS | 41 | 26 | 56 | 29.69 | 6 | WSW | |||
| Bangor | ME | 2026-05-08 02:40 | ASOS | 43 | 26 | 52 | 29.69 | 5 | W | |||
| Bangor | ME | 2026-05-08 02:35 | ASOS | 43 | 26 | 52 | 29.70 | 6 | W | |||
| Bangor | ME | 2026-05-08 02:30 | ASOS | 43 | 26 | 52 | 29.70 | 5 | W | |||
| Bangor | ME | 2026-05-08 02:25 | ASOS | 43 | 26 | 52 | 29.70 | 5 | W | |||
| Bangor | ME | 2026-05-08 06:25 | ASOS | 39 | 30 | 70 | 29.72 | 5 | W | |||
| Bangor | ME | 2026-05-08 06:35 | ASOS | 39 | 30 | 70 | 29.73 | 5 | W | |||
| Bangor | ME | 2026-05-08 00:50 | ASOS | 45 | 26 | 49 | 29.71 | 6 | W | |||
| Bangor | ME | 2026-05-08 10:30 | ASOS | 52 | 34 | 50 | 29.73 | 7 | WNW | |||
| Bangor | ME | 2026-05-08 10:55 | ASOS | 54 | 34 | 47 | 29.73 | 10 | W | |||
| Bangor | ME | 2026-05-08 10:53 | ASOS | 54 | 33 | 45 | 29.73 | 13 | WNW | |||
| Bangor | ME | 2026-05-08 10:50 | ASOS | 54 | 32 | 44 | 29.73 | 12 | W | |||
| Bangor | ME | 2026-05-08 10:45 | ASOS | 54 | 32 | 44 | 29.73 | 14 | WNW | |||
| Bangor | ME | 2026-05-08 10:40 | ASOS | 52 | 32 | 47 | 29.73 | 10 | NW | |||
| Bangor | ME | 2026-05-08 10:35 | ASOS | 52 | 32 | 47 | 29.73 | 10 | NW | |||
| Bangor | ME | 2026-05-08 10:25 | ASOS | 52 | 34 | 50 | 29.74 | 15 | NW | |||
| Bangor | ME | 2026-05-08 11:05 | ASOS | 54 | 32 | 44 | 29.72 | 14 | NNW | |||
| Bangor | ME | 2026-05-08 10:20 | ASOS | 52 | 32 | 47 | 29.74 | 8 | WNW | |||
| Bangor | ME | 2026-05-08 10:10 | ASOS | 52 | 34 | 50 | 29.74 | 10 | NW | |||
| Bangor | ME | 2026-05-08 10:05 | ASOS | 50 | 34 | 54 | 29.74 | 13 | NW | |||
| Bangor | ME | 2026-05-08 10:00 | ASOS | 50 | 34 | 54 | 29.74 | 12 | NW | |||
| Bangor | ME | 2026-05-08 09:55 | ASOS | 48 | 34 | 57 | 29.74 | 8 | NNW | |||
| Bangor | ME | 2026-05-08 09:53 | ASOS | 49 | 33 | 54 | 29.74 | 7 | WNW | |||
| Bangor | ME | 2026-05-08 11:00 | ASOS | 54 | 30 | 41 | 29.73 | 13 | W | |||
| Bangor | ME | 2026-05-08 11:10 | ASOS | 54 | 30 | 41 | 29.72 | 14 | W | |||
| Bangor | ME | 2026-05-08 09:45 | ASOS | 52 | 34 | 50 | 29.74 | 13 | NW | |||
| Bangor | ME | 2026-05-08 11:53 | ASOS | 52 | 32 | 46 | 29.73 | 12 | NNW | |||
| Bangor | ME | 2026-05-08 12:25 | ASOS | 52 | 32 | 47 | 29.72 | 8 | NNW | |||
| Bangor | ME | 2026-05-08 12:20 | ASOS | 52 | 30 | 43 | 29.72 | 7 | NNW | |||
| Bangor | ME | 2026-05-08 12:15 | ASOS | 52 | 30 | 43 | 29.72 | 9 | N | |||
| Bangor | ME | 2026-05-08 12:05 | ASOS | 52 | 30 | 43 | 29.72 | 12 | N | |||
| Bangor | ME | 2026-05-08 12:00 | ASOS | 52 | 32 | 47 | 29.73 | 10 | NNW | |||
| Bangor | ME | 2026-05-08 11:55 | ASOS | 52 | 32 | 47 | 29.73 | 13 | NNW | |||
| Bangor | ME | 2026-05-08 11:50 | ASOS | 52 | 30 | 43 | 29.73 | 7 | WNW | |||
| Bangor | ME | 2026-05-08 11:15 | ASOS | 54 | 30 | 41 | 29.72 | 12 | NW | |||
| Bangor | ME | 2026-05-08 11:45 | ASOS | 52 | 30 | 43 | 29.72 | 8 | WNW | |||
| Bangor | ME | 2026-05-08 11:40 | ASOS | 52 | 30 | 43 | 29.72 | 10 | NW | |||
| Bangor | ME | 2026-05-08 11:35 | ASOS | 53 | 31 | 43 | 29.72 | 8 | NNW | |||
| Bangor | ME | 2026-05-08 11:30 | ASOS | 54 | 32 | 44 | 29.72 | 12 | N | |||
| Bangor | ME | 2026-05-08 11:25 | ASOS | 54 | 34 | 47 | 29.72 | 15 | N | |||
| Bangor | ME | 2026-05-08 11:20 | ASOS | 54 | 30 | 41 | 29.72 | 17 | NNW | |||
| Bangor | ME | 2026-05-08 09:50 | ASOS | 50 | 34 | 54 | 29.74 | 13 | W | |||
| Bangor | ME | 2026-05-08 09:40 | ASOS | 52 | 34 | 50 | 29.74 | 12 | NNW | |||
| Bangor | ME | 2026-05-08 06:40 | ASOS | 41 | 30 | 65 | 29.73 | 7 | W | |||
| Bangor | ME | 2026-05-08 07:25 | ASOS | 45 | 32 | 61 | 29.74 | 8 | WNW | |||
| Bangor | ME | 2026-05-08 07:53 | ASOS | 45 | 33 | 63 | 29.74 | 9 | WNW | |||
| Bangor | ME | 2026-05-08 07:50 | ASOS | 45 | 34 | 66 | 29.74 | 10 | W | |||
| Bangor | ME | 2026-05-08 07:45 | ASOS | 45 | 34 | 66 | 29.74 | 12 | W | |||
| Bangor | ME | 2026-05-08 07:40 | ASOS | 45 | 34 | 66 | 29.74 | 8 | W | |||
| Bangor | ME | 2026-05-08 07:35 | ASOS | 45 | 34 | 66 | 29.74 | 7 | W | |||
| Bangor | ME | 2026-05-08 07:30 | ASOS | 45 | 34 | 66 | 29.74 | 7 | W | |||
| Bangor | ME | 2026-05-08 07:20 | ASOS | 43 | 32 | 65 | 29.74 | 6 | W | |||
| Bangor | ME | 2026-05-08 08:00 | ASOS | 46 | 34 | 61 | 29.74 | 10 | W | |||
| Bangor | ME | 2026-05-08 07:10 | ASOS | 43 | 32 | 65 | 29.74 | 9 | W | |||
| Bangor | ME | 2026-05-08 07:05 | ASOS | 43 | 32 | 65 | 29.74 | 8 | W | |||
| Bangor | ME | 2026-05-08 07:00 | ASOS | 43 | 32 | 65 | 29.74 | 8 | W | |||
| Bangor | ME | 2026-05-08 06:55 | ASOS | 43 | 30 | 61 | 29.73 | 6 | W | |||
| Bangor | ME | 2026-05-08 06:53 | ASOS | 42 | 31 | 64 | 29.73 | 6 | W | |||
| Bangor | ME | 2026-05-08 06:50 | ASOS | 41 | 30 | 65 | 29.73 | 6 | W | |||
| Bangor | ME | 2026-05-08 07:55 | ASOS | 45 | 34 | 66 | 29.74 | 9 | WNW | |||
| Bangor | ME | 2026-05-08 08:05 | ASOS | 46 | 34 | 61 | 29.75 | 10 | NW | |||
| Bangor | ME | 2026-05-08 09:35 | ASOS | 50 | 34 | 54 | 29.74 | |||||
| Bangor | ME | 2026-05-08 08:55 | ASOS | 48 | 34 | 57 | 29.74 | 8 | W | |||
| Bangor | ME | 2026-05-08 09:30 | ASOS | 50 | 34 | 54 | 29.74 | 6 | WNW | |||
| Bangor | ME | 2026-05-08 09:25 | ASOS | 50 | 34 | 54 | 29.74 | 8 | W | |||
| Bangor | ME | 2026-05-08 09:20 | ASOS | 48 | 34 | 57 | 29.74 | 9 | WNW | |||
| Bangor | ME | 2026-05-08 09:15 | ASOS | 48 | 34 | 57 | 29.74 | 7 | W | |||
| Bangor | ME | 2026-05-08 09:10 | ASOS | 48 | 34 | 57 | 29.75 | 7 | WNW | |||
| Bangor | ME | 2026-05-08 09:00 | ASOS | 48 | 34 | 57 | 29.75 | 8 | W | |||
| Bangor | ME | 2026-05-08 08:53 | ASOS | 47 | 33 | 58 | 29.75 | 13 | NW | |||
| Bangor | ME | 2026-05-08 08:10 | ASOS | 46 | 34 | 61 | 29.75 | 10 | NW | |||
| Bangor | ME | 2026-05-08 08:50 | ASOS | 46 | 34 | 61 | 29.75 | 10 | WNW | |||
| Bangor | ME | 2026-05-08 08:45 | ASOS | 46 | 34 | 61 | 29.75 | 13 | WNW | |||
| Bangor | ME | 2026-05-08 08:40 | ASOS | 46 | 34 | 61 | 29.75 | 8 | W | |||
| Bangor | ME | 2026-05-08 08:35 | ASOS | 46 | 34 | 61 | 29.75 | 13 | NW | |||
| Bangor | ME | 2026-05-08 08:30 | ASOS | 46 | 34 | 61 | 29.75 | 10 | W | |||
| Bangor | ME | 2026-05-08 08:20 | ASOS | 46 | 34 | 61 | 29.75 | 12 | NW | |||
| Bangor | ME | 2026-05-08 08:15 | ASOS | 46 | 34 | 61 | 29.75 | 9 | WNW | |||
| Bangor | ME | 2026-05-08 00:53 | ASOS | 44 | 27 | 51 | 29.71 | 5 | W | |||
| Bangor | ME | 2026-05-08 00:40 | ASOS | 45 | 26 | 49 | 29.71 | 7 | WNW | |||
| Bangor | ME | 2026-05-07 12:53 | ASOS | 60 | 38 | 44 | 29.63 | 6 | NNW | |||
| Bangor | ME | 2026-05-07 16:45 | ASOS | 61 | 35 | 39 | 29.60 | 6 | W | |||
| Bangor | ME | 2026-05-07 17:10 | ASOS | 61 | 35 | 39 | 29.61 | 8 | WNW | |||
| Bangor | ME | 2026-05-07 17:05 | ASOS | 61 | 35 | 39 | 29.61 | 9 | NW | |||
| Bangor | ME | 2026-05-07 17:00 | ASOS | 61 | 35 | 39 | 29.60 | 10 | WNW | |||
| Bangor | ME | 2026-05-07 16:55 | ASOS | 61 | 34 | 36 | 29.60 | 7 | W | |||
| Bangor | ME | 2026-05-07 16:53 | ASOS | 60 | 34 | 37 | 29.60 | 15 | WNW | |||
| Bangor | ME | 2026-05-07 16:50 | ASOS | 61 | 35 | 39 | 29.60 | 15 | NW | |||
| Bangor | ME | 2026-05-07 16:40 | ASOS | 61 | 35 | 39 | 29.60 | 7 | NW | |||
| Bangor | ME | 2026-05-07 17:20 | ASOS | 61 | 34 | 36 | 29.61 | 8 | NW | |||
| Bangor | ME | 2026-05-07 16:35 | ASOS | 61 | 35 | 39 | 29.60 | 7 | WNW | |||
| Bangor | ME | 2026-05-07 16:30 | ASOS | 61 | 35 | 39 | 29.60 | 8 | WNW | |||
| Bangor | ME | 2026-05-07 16:25 | ASOS | 61 | 35 | 39 | 29.60 | 8 | WNW | |||
| Bangor | ME | 2026-05-07 16:20 | ASOS | 61 | 35 | 39 | 29.60 | 9 | W | |||
| Bangor | ME | 2026-05-07 16:15 | ASOS | 61 | 35 | 39 | 29.60 | 7 | W | |||
| Bangor | ME | 2026-05-07 16:10 | ASOS | 61 | 35 | 39 | 29.60 | 13 | W | |||
| Bangor | ME | 2026-05-07 17:15 | ASOS | 61 | 35 | 39 | 29.61 | 12 | WNW | |||
| Bangor | ME | 2026-05-07 17:25 | ASOS | 61 | 35 | 39 | 29.61 | 9 | WNW | |||
| Bangor | ME | 2026-05-07 16:00 | ASOS | 61 | 35 | 39 | 29.60 | 13 | SW | |||
| Bangor | ME | 2026-05-07 18:05 | ASOS | 61 | 28 | 29 | 29.61 | 16 | WNW | |||
| Bangor | ME | 2026-05-07 18:35 | ASOS | 57 | 32 | 38 | 29.62 | 14 | NW | |||
| Bangor | ME | 2026-05-07 18:30 | ASOS | 59 | 32 | 36 | 29.62 | 12 | NW | |||
| Bangor | ME | 2026-05-07 18:25 | ASOS | 59 | 32 | 36 | 29.62 | 15 | NW | |||
| Bangor | ME | 2026-05-07 18:20 | ASOS | 59 | 30 | 33 | 29.62 | 15 | NW | |||
| Bangor | ME | 2026-05-07 18:15 | ASOS | 61 | 28 | 29 | 29.61 | 14 | WNW | |||
| Bangor | ME | 2026-05-07 18:10 | ASOS | 61 | 26 | 27 | 29.61 | 16 | WNW | |||
| Bangor | ME | 2026-05-07 18:00 | ASOS | 61 | 28 | 29 | 29.61 | 13 | WNW | |||
| Bangor | ME | 2026-05-07 17:30 | ASOS | 61 | 34 | 36 | 29.61 | 9 | WNW | |||
| Bangor | ME | 2026-05-07 17:55 | ASOS | 61 | 30 | 31 | 29.61 | 12 | W | |||
| Bangor | ME | 2026-05-07 17:53 | ASOS | 62 | 31 | 31 | 29.61 | 10 | WNW | |||
| Bangor | ME | 2026-05-07 17:50 | ASOS | 63 | 30 | 29 | 29.61 | 10 | W | |||
| Bangor | ME | 2026-05-07 17:45 | ASOS | 61 | 32 | 34 | 29.61 | 9 | WNW | |||
| Bangor | ME | 2026-05-07 17:40 | ASOS | 61 | 34 | 36 | 29.61 | 10 | WNW | |||
| Bangor | ME | 2026-05-07 17:35 | ASOS | 61 | 34 | 36 | 29.61 | 9 | W | |||
| Bangor | ME | 2026-05-07 16:05 | ASOS | 61 | 35 | 39 | 29.60 | 12 | W | |||
| Bangor | ME | 2026-05-07 15:55 | ASOS | 61 | 35 | 39 | 29.60 | 8 | SW | |||
| Bangor | ME | 2026-05-07 18:45 | ASOS | 57 | 34 | 41 | 29.63 | 21 | NW | |||
| Bangor | ME | 2026-05-07 13:35 | ASOS | 61 | 35 | 39 | 29.62 | 6 | W | |||
| Bangor | ME | 2026-05-07 14:05 | ASOS | 61 | 35 | 39 | 29.62 | 7 | W | |||
| Bangor | ME | 2026-05-07 14:00 | ASOS | 61 | 37 | 42 | 29.62 | 12 | W | |||
| Bangor | ME | 2026-05-07 13:53 | ASOS | 61 | 37 | 41 | 29.62 | 7 | ||||
| Bangor | ME | 2026-05-07 13:50 | ASOS | 61 | 37 | 42 | 29.62 | 8 | WSW | |||
| Bangor | ME | 2026-05-07 13:45 | ASOS | 61 | 35 | 39 | 29.62 | 7 | W | |||
| Bangor | ME | 2026-05-07 13:40 | ASOS | 61 | 37 | 42 | 29.62 | 10 | W | |||
| Bangor | ME | 2026-05-07 13:30 | ASOS | 61 | 35 | 39 | 29.62 | 8 | WSW | |||
| Bangor | ME | 2026-05-07 14:20 | ASOS | 63 | 37 | 39 | 29.61 | 12 | WSW | |||
| Bangor | ME | 2026-05-07 13:25 | ASOS | 61 | 35 | 39 | 29.62 | 12 | WSW | |||
| Bangor | ME | 2026-05-07 13:20 | ASOS | 61 | 35 | 39 | 29.62 | 9 | W | |||
| Bangor | ME | 2026-05-07 13:15 | ASOS | 61 | 37 | 42 | 29.62 | |||||
| Bangor | ME | 2026-05-07 13:10 | ASOS | 61 | 35 | 39 | 29.62 | 7 | W | |||
| Bangor | ME | 2026-05-07 13:05 | ASOS | 61 | 37 | 42 | 29.62 | 8 | WSW | |||
| Bangor | ME | 2026-05-07 13:00 | ASOS | 59 | 37 | 44 | 29.63 | 7 | NW | |||
| Bangor | ME | 2026-05-07 14:15 | ASOS | 63 | 37 | 39 | 29.61 | 10 | WSW | |||
| Bangor | ME | 2026-05-07 14:25 | ASOS | 63 | 37 | 39 | 29.61 | 12 | W | |||
| Bangor | ME | 2026-05-07 15:53 | ASOS | 61 | 37 | 41 | 29.60 | 10 | SW | |||
| Bangor | ME | 2026-05-07 15:15 | ASOS | 63 | 35 | 36 | 29.60 | 9 | WSW | |||
| Bangor | ME | 2026-05-07 15:50 | ASOS | 61 | 35 | 39 | 29.60 | 13 | W | |||
| Bangor | ME | 2026-05-07 15:45 | ASOS | 61 | 35 | 39 | 29.60 | 8 | WSW | |||
| Bangor | ME | 2026-05-07 15:40 | ASOS | 61 | 35 | 39 | 29.60 | 10 | WSW | |||
| Bangor | ME | 2026-05-07 15:35 | ASOS | 63 | 35 | 36 | 29.60 | 13 | SW | |||
| Bangor | ME | 2026-05-07 15:30 | ASOS | 63 | 37 | 39 | 29.59 | 9 | WSW | |||
| Bangor | ME | 2026-05-07 15:20 | ASOS | 63 | 37 | 39 | 29.60 | 10 | SSW | |||
| Bangor | ME | 2026-05-07 15:10 | ASOS | 61 | 35 | 39 | 29.60 | 10 | WSW | |||
| Bangor | ME | 2026-05-07 14:30 | ASOS | 61 | 35 | 39 | 29.61 | 8 | WSW | |||
| Bangor | ME | 2026-05-07 15:05 | ASOS | 61 | 35 | 39 | 29.60 | 9 | W | |||
| Bangor | ME | 2026-05-07 14:55 | ASOS | 63 | 37 | 39 | 29.60 | 15 | SW | |||
| Bangor | ME | 2026-05-07 14:53 | ASOS | 62 | 37 | 39 | 29.60 | 15 | SW | |||
| Bangor | ME | 2026-05-07 14:50 | ASOS | 63 | 37 | 39 | 29.60 | 13 | SW | |||
| Bangor | ME | 2026-05-07 14:45 | ASOS | 63 | 35 | 36 | 29.60 | 10 | WSW | |||
| Bangor | ME | 2026-05-07 14:40 | ASOS | 63 | 35 | 36 | 29.60 | 13 | SW | |||
| Bangor | ME | 2026-05-07 14:35 | ASOS | 63 | 37 | 39 | 29.61 | 13 | WSW | |||
| Bangor | ME | 2026-05-07 18:40 | ASOS | 57 | 34 | 41 | 29.63 | 16 | NW | |||
| Bangor | ME | 2026-05-07 18:50 | ASOS | 57 | 34 | 41 | 29.63 | 16 | NW | |||
| Bangor | ME | 2026-05-08 00:35 | ASOS | 43 | 26 | 52 | 29.71 | 7 | WNW | |||
| Bangor | ME | 2026-05-07 22:40 | ASOS | 45 | 26 | 49 | 29.72 | 7 | WNW | |||
| Bangor | ME | 2026-05-07 23:05 | ASOS | 45 | 26 | 49 | 29.72 | 3 | SSW | |||
| Bangor | ME | 2026-05-07 23:00 | ASOS | 46 | 26 | 46 | 29.72 | 0 | N | |||
| Bangor | ME | 2026-05-07 22:55 | ASOS | 46 | 26 | 46 | 29.72 | 5 | WNW | |||
| Bangor | ME | 2026-05-07 22:53 | ASOS | 46 | 26 | 45 | 29.72 | 5 | WNW | |||
| Bangor | ME | 2026-05-07 22:50 | ASOS | 45 | 26 | 49 | 29.72 | 7 | W | |||
| Bangor | ME | 2026-05-07 22:45 | ASOS | 46 | 26 | 46 | 29.72 | 8 | W | |||
| Bangor | ME | 2026-05-07 22:30 | ASOS | 45 | 26 | 49 | 29.72 | 3 | WSW | |||
| Bangor | ME | 2026-05-07 23:15 | ASOS | 45 | 26 | 49 | 29.72 | 0 | N | |||
| Bangor | ME | 2026-05-07 22:25 | ASOS | 46 | 25 | 42 | 29.72 | 0 | N | |||
| Bangor | ME | 2026-05-07 22:20 | ASOS | 46 | 26 | 46 | 29.72 | 0 | N | |||
| Bangor | ME | 2026-05-07 22:15 | ASOS | 46 | 26 | 46 | 29.72 | 3 | WNW | |||
| Bangor | ME | 2026-05-07 22:10 | ASOS | 46 | 26 | 46 | 29.72 | 3 | WNW | |||
| Bangor | ME | 2026-05-07 22:00 | ASOS | 45 | 26 | 49 | 29.72 | 5 | WNW | |||
| Bangor | ME | 2026-05-07 21:55 | ASOS | 46 | 25 | 42 | 29.72 | 6 | WNW | |||
| Bangor | ME | 2026-05-07 23:10 | ASOS | 45 | 26 | 49 | 29.72 | 3 | SSW | |||
| Bangor | ME | 2026-05-07 23:20 | ASOS | 45 | 26 | 49 | 29.73 | 0 | N | |||
| Bangor | ME | 2026-05-07 21:50 | ASOS | 46 | 25 | 42 | 29.72 | 6 | WNW | |||
| Bangor | ME | 2026-05-08 00:00 | ASOS | 41 | 28 | 61 | 29.73 | 0 | N | |||
| Bangor | ME | 2026-05-08 00:30 | ASOS | 43 | 26 | 52 | 29.72 | 6 | WNW | |||
| Bangor | ME | 2026-05-08 00:25 | ASOS | 43 | 26 | 52 | 29.72 | 7 | WNW | |||
| Bangor | ME | 2026-05-08 00:20 | ASOS | 43 | 28 | 56 | 29.72 | 7 | WNW | |||
| Bangor | ME | 2026-05-08 00:15 | ASOS | 41 | 28 | 61 | 29.72 | 5 | WNW | |||
| Bangor | ME | 2026-05-08 00:10 | ASOS | 43 | 28 | 56 | 29.72 | 0 | N | |||
| Bangor | ME | 2026-05-08 00:05 | ASOS | 41 | 28 | 61 | 29.73 | 0 | N | |||
| Bangor | ME | 2026-05-07 23:55 | ASOS | 43 | 26 | 52 | 29.73 | 3 | NNE | |||
| Bangor | ME | 2026-05-07 23:25 | ASOS | 43 | 26 | 52 | 29.73 | 3 | WSW | |||
| Bangor | ME | 2026-05-07 23:53 | ASOS | 43 | 27 | 53 | 29.73 | 0 | N | |||
| Bangor | ME | 2026-05-07 23:50 | ASOS | 45 | 26 | 49 | 29.73 | 0 | N | |||
| Bangor | ME | 2026-05-07 23:45 | ASOS | 45 | 26 | 49 | 29.73 | 0 | N | |||
| Bangor | ME | 2026-05-07 23:40 | ASOS | 43 | 26 | 52 | 29.73 | 3 | W | |||
| Bangor | ME | 2026-05-07 23:35 | ASOS | 43 | 26 | 52 | 29.73 | 5 | WSW | |||
| Bangor | ME | 2026-05-07 23:30 | ASOS | 43 | 26 | 52 | 29.73 | 5 | WSW | |||
| Bangor | ME | 2026-05-07 21:53 | ASOS | 47 | 25 | 42 | 29.72 | 6 | WNW | |||
| Bangor | ME | 2026-05-07 21:45 | ASOS | 48 | 26 | 43 | 29.72 | 6 | WNW | |||
| Bangor | ME | 2026-05-07 18:53 | ASOS | 57 | 33 | 40 | 29.64 | 12 | WNW | |||
| Bangor | ME | 2026-05-07 19:30 | ASOS | 54 | 28 | 38 | 29.68 | 18 | NW | |||
| Bangor | ME | 2026-05-07 19:55 | ASOS | 52 | 26 | 37 | 29.70 | 9 | NW | |||
| Bangor | ME | 2026-05-07 19:53 | ASOS | 52 | 26 | 36 | 29.70 | 10 | NW | |||
| Bangor | ME | 2026-05-07 19:50 | ASOS | 52 | 26 | 37 | 29.69 | 12 | NW | |||
| Bangor | ME | 2026-05-07 19:45 | ASOS | 52 | 26 | 37 | 29.69 | 15 | NW | |||
| Bangor | ME | 2026-05-07 19:40 | ASOS | 54 | 26 | 35 | 29.68 | 12 | NW | |||
| Bangor | ME | 2026-05-07 19:35 | ASOS | 54 | 26 | 35 | 29.68 | 13 | NW | |||
| Bangor | ME | 2026-05-07 19:25 | ASOS | 54 | 28 | 38 | 29.67 | 14 | WNW | |||
| Bangor | ME | 2026-05-07 20:05 | ASOS | 50 | 28 | 43 | 29.70 | 10 | NNW | |||
| Bangor | ME | 2026-05-07 19:20 | ASOS | 54 | 28 | 38 | 29.67 | 14 | WNW | |||
| Bangor | ME | 2026-05-07 19:15 | ASOS | 55 | 28 | 35 | 29.66 | 14 | WNW | |||
| Bangor | ME | 2026-05-07 19:10 | ASOS | 55 | 30 | 38 | 29.65 | 13 | WNW | |||
| Bangor | ME | 2026-05-07 19:05 | ASOS | 55 | 30 | 38 | 29.65 | 13 | WNW | |||
| Bangor | ME | 2026-05-07 19:00 | ASOS | 55 | 30 | 38 | 29.64 | 16 | NW | |||
| Bangor | ME | 2026-05-07 18:55 | ASOS | 57 | 34 | 41 | 29.64 | 17 | NW | |||
| Bangor | ME | 2026-05-07 20:00 | ASOS | 52 | 26 | 37 | 29.70 | 10 | NW | |||
| Bangor | ME | 2026-05-07 20:15 | ASOS | 50 | 28 | 43 | 29.71 | 15 | NW | |||
| Bangor | ME | 2026-05-07 21:40 | ASOS | 46 | 25 | 42 | 29.72 | 7 | NW | |||
| Bangor | ME | 2026-05-07 21:00 | ASOS | 48 | 26 | 43 | 29.72 | 9 | NW | |||
| Bangor | ME | 2026-05-07 21:35 | ASOS | 48 | 25 | 40 | 29.72 | 7 | WNW | |||
| Bangor | ME | 2026-05-07 21:30 | ASOS | 46 | 25 | 42 | 29.72 | 6 | WNW | |||
| Bangor | ME | 2026-05-07 21:25 | ASOS | 48 | 26 | 43 | 29.72 | 5 | WNW | |||
| Bangor | ME | 2026-05-07 21:15 | ASOS | 48 | 26 | 43 | 29.72 | 6 | WNW | |||
| Bangor | ME | 2026-05-07 21:10 | ASOS | 48 | 26 | 43 | 29.72 | 6 | WNW | |||
| Bangor | ME | 2026-05-07 21:05 | ASOS | 48 | 26 | 43 | 29.72 | 8 | NW | |||
| Bangor | ME | 2026-05-07 20:55 | ASOS | 48 | 26 | 43 | 29.72 | 8 | NW | |||
| Bangor | ME | 2026-05-07 20:20 | ASOS | 50 | 26 | 40 | 29.71 | 7 | NW | |||
| Bangor | ME | 2026-05-07 20:53 | ASOS | 49 | 26 | 41 | 29.72 | 9 | NW | |||
| Bangor | ME | 2026-05-07 20:50 | ASOS | 48 | 26 | 43 | 29.72 | 8 | NW | |||
| Bangor | ME | 2026-05-07 20:45 | ASOS | 48 | 26 | 43 | 29.71 | 8 | NW | |||
| Bangor | ME | 2026-05-07 20:40 | ASOS | 48 | 26 | 43 | 29.71 | 9 | NW | |||
| Bangor | ME | 2026-05-07 20:35 | ASOS | 48 | 26 | 43 | 29.71 | 8 | NW | |||
| Bangor | ME | 2026-05-07 20:30 | ASOS | 50 | 26 | 40 | 29.71 | 9 | WNW | |||
| Bangor | ME | 2026-05-07 20:25 | ASOS | 50 | 26 | 40 | 29.71 | 6 | NW | |||
| Bangor | ME | 2026-05-08 12:30 | ASOS | 52 | 34 | 50 | 29.72 | 8 | NNW |
data collection created in 0.047179937362671 (queried in 0.014357) rendered in: 0.00047898292541504

